sensor_id;sensor_type;location;lat;lon;timestamp;pressure;altitude;pressure_sealevel;temperature;humidity
8320;BME280;4197;42.130;24.746;2023-02-08T00:01:15;101286.69;;;-1.64;63.61
8320;BME280;4197;42.130;24.746;2023-02-08T00:03:43;101282.78;;;-1.62;63.65
8320;BME280;4197;42.130;24.746;2023-02-08T00:06:12;101280.91;;;-1.61;63.77
8320;BME280;4197;42.130;24.746;2023-02-08T00:08:40;101292.03;;;-1.64;63.71
8320;BME280;4197;42.130;24.746;2023-02-08T00:11:09;101285.31;;;-1.67;63.71
8320;BME280;4197;42.130;24.746;2023-02-08T00:13:38;101292.81;;;-1.75;64.13
8320;BME280;4197;42.130;24.746;2023-02-08T00:16:09;101300.78;;;-1.75;64.18
8320;BME280;4197;42.130;24.746;2023-02-08T00:18:39;101304.50;;;-1.76;64.44
8320;BME280;4197;42.130;24.746;2023-02-08T00:21:12;101306.56;;;-1.78;64.59
8320;BME280;4197;42.130;24.746;2023-02-08T00:23:40;101310.25;;;-1.80;64.89
8320;BME280;4197;42.130;24.746;2023-02-08T00:26:08;101305.41;;;-1.83;65.19
8320;BME280;4197;42.130;24.746;2023-02-08T00:28:37;101310.72;;;-1.83;65.24
8320;BME280;4197;42.130;24.746;2023-02-08T00:31:05;101314.97;;;-1.82;65.49
8320;BME280;4197;42.130;24.746;2023-02-08T00:33:35;101309.66;;;-1.82;65.35
8320;BME280;4197;42.130;24.746;2023-02-08T00:36:05;101312.19;;;-1.87;65.42
8320;BME280;4197;42.130;24.746;2023-02-08T00:38:34;101317.50;;;-1.87;65.90
8320;BME280;4197;42.130;24.746;2023-02-08T00:41:03;101326.28;;;-1.86;65.91
8320;BME280;4197;42.130;24.746;2023-02-08T00:43:32;101326.75;;;-1.89;65.64
8320;BME280;4197;42.130;24.746;2023-02-08T00:46:00;101329.19;;;-1.88;65.84
8320;BME280;4197;42.130;24.746;2023-02-08T00:48:28;101324.69;;;-1.87;65.69
8320;BME280;4197;42.130;24.746;2023-02-08T00:51:03;101334.25;;;-1.86;65.53
8320;BME280;4197;42.130;24.746;2023-02-08T00:53:34;101338.78;;;-1.87;65.50
8320;BME280;4197;42.130;24.746;2023-02-08T00:56:04;101341.28;;;-1.92;65.46
8320;BME280;4197;42.130;24.746;2023-02-08T00:58:33;101340.03;;;-1.89;66.07
8320;BME280;4197;42.130;24.746;2023-02-08T01:01:02;101339.44;;;-1.91;65.83
8320;BME280;4197;42.130;24.746;2023-02-08T01:03:32;101335.41;;;-1.94;65.88
8320;BME280;4197;42.130;24.746;2023-02-08T01:06:05;101337.47;;;-1.96;65.77
8320;BME280;4197;42.130;24.746;2023-02-08T01:08:33;101326.91;;;-2.03;66.34
8320;BME280;4197;42.130;24.746;2023-02-08T01:11:04;101327.16;;;-2.04;66.25
8320;BME280;4197;42.130;24.746;2023-02-08T01:13:32;101332.53;;;-2.11;66.36
8320;BME280;4197;42.130;24.746;2023-02-08T01:16:09;101323.75;;;-2.11;66.55
8320;BME280;4197;42.130;24.746;2023-02-08T01:18:38;101328.03;;;-2.10;66.90
8320;BME280;4197;42.130;24.746;2023-02-08T01:21:10;101331.28;;;-2.08;66.22
8320;BME280;4197;42.130;24.746;2023-02-08T01:23:39;101329.31;;;-2.13;66.64
8320;BME280;4197;42.130;24.746;2023-02-08T01:26:08;101332.97;;;-2.14;66.71
8320;BME280;4197;42.130;24.746;2023-02-08T01:28:37;101334.38;;;-2.11;66.53
8320;BME280;4197;42.130;24.746;2023-02-08T01:31:06;101331.72;;;-2.11;66.38
8320;BME280;4197;42.130;24.746;2023-02-08T01:33:36;101336.53;;;-2.20;67.15
8320;BME280;4197;42.130;24.746;2023-02-08T01:36:05;101328.59;;;-2.08;66.16
8320;BME280;4197;42.130;24.746;2023-02-08T01:38:35;101332.09;;;-2.08;66.57
8320;BME280;4197;42.130;24.746;2023-02-08T01:41:06;101327.81;;;-2.09;66.26
8320;BME280;4197;42.130;24.746;2023-02-08T01:44:04;101337.84;;;-2.11;66.34
8320;BME280;4197;42.130;24.746;2023-02-08T01:46:34;101339.13;;;-2.13;66.65
8320;BME280;4197;42.130;24.746;2023-02-08T01:49:05;101337.03;;;-2.11;66.05
8320;BME280;4197;42.130;24.746;2023-02-08T01:51:38;101337.47;;;-2.14;66.29
8320;BME280;4197;42.130;24.746;2023-02-08T01:54:09;101346.72;;;-2.17;66.83
8320;BME280;4197;42.130;24.746;2023-02-08T01:56:42;101345.47;;;-2.14;66.39
8320;BME280;4197;42.130;24.746;2023-02-08T01:59:14;101344.06;;;-2.17;66.29
8320;BME280;4197;42.130;24.746;2023-02-08T02:01:45;101349.16;;;-2.15;66.13
8320;BME280;4197;42.130;24.746;2023-02-08T02:04:15;101353.66;;;-2.16;66.57
8320;BME280;4197;42.130;24.746;2023-02-08T02:06:46;101347.53;;;-2.16;66.26
8320;BME280;4197;42.130;24.746;2023-02-08T02:09:21;101348.56;;;-2.17;66.34
8320;BME280;4197;42.130;24.746;2023-02-08T02:11:52;101346.34;;;-2.20;66.28
8320;BME280;4197;42.130;24.746;2023-02-08T02:14:21;101350.63;;;-2.19;66.26
8320;BME280;4197;42.130;24.746;2023-02-08T02:16:50;101347.16;;;-2.20;66.22
8320;BME280;4197;42.130;24.746;2023-02-08T02:19:25;101350.47;;;-2.25;65.99
8320;BME280;4197;42.130;24.746;2023-02-08T02:22:04;101350.91;;;-2.28;66.50
8320;BME280;4197;42.130;24.746;2023-02-08T02:25:00;101363.63;;;-2.30;66.18
8320;BME280;4197;42.130;24.746;2023-02-08T02:27:41;101358.38;;;-2.36;66.20
8320;BME280;4197;42.130;24.746;2023-02-08T02:30:45;101365.53;;;-2.37;66.11
8320;BME280;4197;42.130;24.746;2023-02-08T02:33:47;101360.66;;;-2.40;66.70
8320;BME280;4197;42.130;24.746;2023-02-08T02:36:29;101360.88;;;-2.41;66.79
8320;BME280;4197;42.130;24.746;2023-02-08T02:39:09;101368.28;;;-2.43;66.54
8320;BME280;4197;42.130;24.746;2023-02-08T02:41:47;101369.53;;;-2.46;67.00
8320;BME280;4197;42.130;24.746;2023-02-08T02:44:44;101377.09;;;-2.50;67.51
8320;BME280;4197;42.130;24.746;2023-02-08T02:47:25;101378.50;;;-2.47;67.22
8320;BME280;4197;42.130;24.746;2023-02-08T02:50:00;101379.41;;;-2.53;66.91
8320;BME280;4197;42.130;24.746;2023-02-08T02:52:36;101386.34;;;-2.52;66.98
8320;BME280;4197;42.130;24.746;2023-02-08T02:55:10;101385.31;;;-2.51;66.85
8320;BME280;4197;42.130;24.746;2023-02-08T02:57:41;101391.06;;;-2.54;66.95
8320;BME280;4197;42.130;24.746;2023-02-08T03:00:15;101394.59;;;-2.60;67.21
8320;BME280;4197;42.130;24.746;2023-02-08T03:02:46;101389.50;;;-2.62;67.11
8320;BME280;4197;42.130;24.746;2023-02-08T03:05:16;101399.50;;;-2.64;67.50
8320;BME280;4197;42.130;24.746;2023-02-08T03:08:00;101401.81;;;-2.67;67.67
8320;BME280;4197;42.130;24.746;2023-02-08T03:10:45;101399.50;;;-2.64;67.29
8320;BME280;4197;42.130;24.746;2023-02-08T03:13:25;101404.66;;;-2.69;67.69
8320;BME280;4197;42.130;24.746;2023-02-08T03:16:04;101405.72;;;-2.70;68.05
8320;BME280;4197;42.130;24.746;2023-02-08T03:18:49;101407.75;;;-2.72;67.82
8320;BME280;4197;42.130;24.746;2023-02-08T03:21:28;101418.63;;;-2.74;67.93
8320;BME280;4197;42.130;24.746;2023-02-08T03:24:01;101414.75;;;-2.78;68.51
8320;BME280;4197;42.130;24.746;2023-02-08T03:26:35;101413.56;;;-2.82;68.87
8320;BME280;4197;42.130;24.746;2023-02-08T03:29:10;101416.22;;;-2.82;68.74
8320;BME280;4197;42.130;24.746;2023-02-08T03:31:44;101418.28;;;-2.84;68.86
8320;BME280;4197;42.130;24.746;2023-02-08T03:34:18;101420.38;;;-2.93;69.12
8320;BME280;4197;42.130;24.746;2023-02-08T03:36:53;101432.44;;;-2.97;69.18
8320;BME280;4197;42.130;24.746;2023-02-08T03:39:25;101421.03;;;-2.97;69.62
8320;BME280;4197;42.130;24.746;2023-02-08T03:41:57;101432.63;;;-2.92;69.22
8320;BME280;4197;42.130;24.746;2023-02-08T03:44:31;101428.72;;;-2.89;69.69
8320;BME280;4197;42.130;24.746;2023-02-08T03:47:04;101433.28;;;-2.96;70.05
8320;BME280;4197;42.130;24.746;2023-02-08T03:49:35;101429.41;;;-2.94;69.22
8320;BME280;4197;42.130;24.746;2023-02-08T03:52:08;101433.88;;;-2.94;69.53
8320;BME280;4197;42.130;24.746;2023-02-08T03:54:40;101433.72;;;-2.99;69.64
8320;BME280;4197;42.130;24.746;2023-02-08T03:57:14;101433.84;;;-2.87;69.56
8320;BME280;4197;42.130;24.746;2023-02-08T03:59:48;101433.16;;;-2.83;69.35
8320;BME280;4197;42.130;24.746;2023-02-08T04:02:20;101436.00;;;-2.78;68.67
8320;BME280;4197;42.130;24.746;2023-02-08T04:04:51;101438.66;;;-2.78;68.37
8320;BME280;4197;42.130;24.746;2023-02-08T04:07:21;101443.75;;;-2.76;68.20
8320;BME280;4197;42.130;24.746;2023-02-08T04:09:49;101449.06;;;-2.76;67.77
8320;BME280;4197;42.130;24.746;2023-02-08T04:12:17;101447.03;;;-2.81;67.65
8320;BME280;4197;42.130;24.746;2023-02-08T04:14:46;101449.34;;;-2.84;68.12
8320;BME280;4197;42.130;24.746;2023-02-08T04:17:14;101450.13;;;-2.84;68.27
8320;BME280;4197;42.130;24.746;2023-02-08T04:19:42;101455.06;;;-2.87;68.26
8320;BME280;4197;42.130;24.746;2023-02-08T04:22:10;101455.72;;;-2.92;68.91
8320;BME280;4197;42.130;24.746;2023-02-08T04:24:40;101453.66;;;-2.90;68.95
8320;BME280;4197;42.130;24.746;2023-02-08T04:27:08;101454.25;;;-2.88;68.64
8320;BME280;4197;42.130;24.746;2023-02-08T04:29:36;101451.22;;;-2.92;68.32
8320;BME280;4197;42.130;24.746;2023-02-08T04:32:04;101455.50;;;-2.90;68.69
8320;BME280;4197;42.130;24.746;2023-02-08T04:34:37;101466.69;;;-2.88;68.59
8320;BME280;4197;42.130;24.746;2023-02-08T04:37:05;101463.84;;;-2.87;68.03
8320;BME280;4197;42.130;24.746;2023-02-08T04:39:34;101463.84;;;-2.87;68.08
8320;BME280;4197;42.130;24.746;2023-02-08T04:42:04;101472.41;;;-2.85;68.11
8320;BME280;4197;42.130;24.746;2023-02-08T04:44:32;101472.25;;;-2.90;68.29
8320;BME280;4197;42.130;24.746;2023-02-08T04:47:00;101474.25;;;-2.85;68.09
8320;BME280;4197;42.130;24.746;2023-02-08T04:49:28;101470.34;;;-2.83;67.25
8320;BME280;4197;42.130;24.746;2023-02-08T04:51:57;101484.28;;;-2.87;68.00
8320;BME280;4197;42.130;24.746;2023-02-08T04:54:25;101487.94;;;-2.88;68.35
8320;BME280;4197;42.130;24.746;2023-02-08T04:56:53;101495.75;;;-2.94;68.59
8320;BME280;4197;42.130;24.746;2023-02-08T04:59:23;101495.97;;;-2.95;68.75
8320;BME280;4197;42.130;24.746;2023-02-08T05:01:51;101498.63;;;-2.95;68.94
8320;BME280;4197;42.130;24.746;2023-02-08T05:04:19;101503.06;;;-2.89;68.49
8320;BME280;4197;42.130;24.746;2023-02-08T05:06:47;101501.06;;;-2.94;68.43
8320;BME280;4197;42.130;24.746;2023-02-08T05:09:15;101498.63;;;-2.95;68.31
8320;BME280;4197;42.130;24.746;2023-02-08T05:11:43;101509.19;;;-2.88;67.95
8320;BME280;4197;42.130;24.746;2023-02-08T05:14:12;101511.63;;;-2.87;67.58
8320;BME280;4197;42.130;24.746;2023-02-08T05:16:42;101515.66;;;-2.78;66.80
8320;BME280;4197;42.130;24.746;2023-02-08T05:19:10;101508.72;;;-2.79;66.86
8320;BME280;4197;42.130;24.746;2023-02-08T05:21:39;101513.41;;;-2.74;66.78
8320;BME280;4197;42.130;24.746;2023-02-08T05:24:07;101514.22;;;-2.74;67.31
8320;BME280;4197;42.130;24.746;2023-02-08T05:26:38;101514.22;;;-2.74;66.95
8320;BME280;4197;42.130;24.746;2023-02-08T05:29:09;101519.53;;;-2.74;67.14
8320;BME280;4197;42.130;24.746;2023-02-08T05:31:37;101524.16;;;-2.69;66.20
8320;BME280;4197;42.130;24.746;2023-02-08T05:34:07;101518.06;;;-2.70;66.26
8320;BME280;4197;42.130;24.746;2023-02-08T05:36:36;101525.00;;;-2.68;66.98
8320;BME280;4197;42.130;24.746;2023-02-08T05:39:04;101518.72;;;-2.74;66.66
8320;BME280;4197;42.130;24.746;2023-02-08T05:41:33;101528.06;;;-2.72;66.85
8320;BME280;4197;42.130;24.746;2023-02-08T05:44:01;101533.34;;;-2.65;66.52
8320;BME280;4197;42.130;24.746;2023-02-08T05:46:30;101529.03;;;-2.59;66.59
8320;BME280;4197;42.130;24.746;2023-02-08T05:48:58;101531.44;;;-2.58;66.43
8320;BME280;4197;42.130;24.746;2023-02-08T05:51:27;101530.44;;;-2.57;65.97
8320;BME280;4197;42.130;24.746;2023-02-08T05:53:55;101539.38;;;-2.51;65.74
8320;BME280;4197;42.130;24.746;2023-02-08T05:56:24;101538.50;;;-2.45;65.63
8320;BME280;4197;42.130;24.746;2023-02-08T05:58:53;101539.13;;;-2.43;65.33
8320;BME280;4197;42.130;24.746;2023-02-08T06:01:22;101551.97;;;-2.40;65.23
8320;BME280;4197;42.130;24.746;2023-02-08T06:03:50;101560.38;;;-2.43;65.44
8320;BME280;4197;42.130;24.746;2023-02-08T06:06:19;101552.41;;;-2.43;65.43
8320;BME280;4197;42.130;24.746;2023-02-08T06:08:48;101563.06;;;-2.25;64.48
8320;BME280;4197;42.130;24.746;2023-02-08T06:11:16;101563.03;;;-2.18;64.43
8320;BME280;4197;42.130;24.746;2023-02-08T06:13:45;101569.34;;;-2.12;64.12
8320;BME280;4197;42.130;24.746;2023-02-08T06:16:14;101578.56;;;-2.15;63.84
8320;BME280;4197;42.130;24.746;2023-02-08T06:18:45;101576.94;;;-2.16;63.99
8320;BME280;4197;42.130;24.746;2023-02-08T06:21:14;101566.16;;;-2.03;63.66
8320;BME280;4197;42.130;24.746;2023-02-08T06:23:42;101578.00;;;-1.98;63.06
8320;BME280;4197;42.130;24.746;2023-02-08T06:26:12;101571.22;;;-1.94;62.62
8320;BME280;4197;42.130;24.746;2023-02-08T06:28:40;101573.84;;;-1.88;62.77
8320;BME280;4197;42.130;24.746;2023-02-08T06:31:08;101579.50;;;-1.84;62.72
8320;BME280;4197;42.130;24.746;2023-02-08T06:33:36;101574.56;;;-1.81;62.31
8320;BME280;4197;42.130;24.746;2023-02-08T06:36:06;101572.34;;;-1.84;62.55
8320;BME280;4197;42.130;24.746;2023-02-08T06:38:34;101574.28;;;-1.72;62.11
8320;BME280;4197;42.130;24.746;2023-02-08T06:41:02;101570.38;;;-1.70;62.10
8320;BME280;4197;42.130;24.746;2023-02-08T06:43:32;101578.97;;;-1.68;62.06
8320;BME280;4197;42.130;24.746;2023-02-08T06:46:00;101590.63;;;-1.69;61.71
8320;BME280;4197;42.130;24.746;2023-02-08T06:48:30;101579.31;;;-1.64;61.93
8320;BME280;4197;42.130;24.746;2023-02-08T06:50:59;101578.16;;;-1.68;61.86
8320;BME280;4197;42.130;24.746;2023-02-08T06:53:27;101587.31;;;-1.64;61.42
8320;BME280;4197;42.130;24.746;2023-02-08T06:55:55;101595.69;;;-1.61;61.77
8320;BME280;4197;42.130;24.746;2023-02-08T06:58:24;101589.03;;;-1.51;61.07
8320;BME280;4197;42.130;24.746;2023-02-08T07:00:53;101585.41;;;-1.57;61.88
8320;BME280;4197;42.130;24.746;2023-02-08T07:03:22;101593.53;;;-1.52;61.44
8320;BME280;4197;42.130;24.746;2023-02-08T07:05:50;101589.53;;;-1.43;61.07
8320;BME280;4197;42.130;24.746;2023-02-08T07:08:31;101594.13;;;-1.31;60.29
8320;BME280;4197;42.130;24.746;2023-02-08T07:10:59;101604.56;;;-1.30;60.09
8320;BME280;4197;42.130;24.746;2023-02-08T07:13:32;101594.72;;;-1.29;60.17
8320;BME280;4197;42.130;24.746;2023-02-08T07:16:02;101608.75;;;-1.22;59.96
8320;BME280;4197;42.130;24.746;2023-02-08T07:18:31;101608.19;;;-1.24;59.83
8320;BME280;4197;42.130;24.746;2023-02-08T07:20:59;101609.66;;;-1.28;60.40
8320;BME280;4197;42.130;24.746;2023-02-08T07:23:28;101613.28;;;-1.23;59.80
8320;BME280;4197;42.130;24.746;2023-02-08T07:25:57;101622.22;;;-1.17;60.33
8320;BME280;4197;42.130;24.746;2023-02-08T07:28:26;101621.19;;;-1.16;59.85
8320;BME280;4197;42.130;24.746;2023-02-08T07:30:54;101620.97;;;-1.15;59.82
8320;BME280;4197;42.130;24.746;2023-02-08T07:33:24;101621.72;;;-1.07;59.84
8320;BME280;4197;42.130;24.746;2023-02-08T07:35:53;101620.47;;;-1.05;59.89
8320;BME280;4197;42.130;24.746;2023-02-08T07:38:21;101633.91;;;-1.00;59.81
8320;BME280;4197;42.130;24.746;2023-02-08T07:40:49;101633.81;;;-0.93;59.51
8320;BME280;4197;42.130;24.746;2023-02-08T07:43:18;101633.22;;;-0.95;59.43
8320;BME280;4197;42.130;24.746;2023-02-08T07:45:46;101639.16;;;-0.93;59.52
8320;BME280;4197;42.130;24.746;2023-02-08T07:48:14;101636.94;;;-0.96;58.99
8320;BME280;4197;42.130;24.746;2023-02-08T07:50:44;101636.94;;;-0.96;59.60
8320;BME280;4197;42.130;24.746;2023-02-08T07:53:13;101634.94;;;-0.82;59.30
8320;BME280;4197;42.130;24.746;2023-02-08T07:55:44;101633.56;;;-0.73;58.92
8320;BME280;4197;42.130;24.746;2023-02-08T07:58:12;101633.94;;;-0.70;59.01
8320;BME280;4197;42.130;24.746;2023-02-08T08:00:41;101636.97;;;-0.66;58.78
8320;BME280;4197;42.130;24.746;2023-02-08T08:03:09;101627.75;;;-0.52;57.75
8320;BME280;4197;42.130;24.746;2023-02-08T08:05:39;101642.00;;;-0.58;57.46
8320;BME280;4197;42.130;24.746;2023-02-08T08:08:10;101638.78;;;-0.48;58.11
8320;BME280;4197;42.130;24.746;2023-02-08T08:10:38;101636.84;;;-0.41;57.50
8320;BME280;4197;42.130;24.746;2023-02-08T08:13:07;101633.94;;;-0.39;57.84
8320;BME280;4197;42.130;24.746;2023-02-08T08:15:36;101640.69;;;-0.25;57.04
8320;BME280;4197;42.130;24.746;2023-02-08T08:18:04;101636.69;;;-0.16;56.92
8320;BME280;4197;42.130;24.746;2023-02-08T08:20:32;101642.72;;;-0.09;56.47
8320;BME280;4197;42.130;24.746;2023-02-08T08:23:01;101646.44;;;-0.10;55.69
8320;BME280;4197;42.130;24.746;2023-02-08T08:25:30;101642.94;;;-0.22;56.03
8320;BME280;4197;42.130;24.746;2023-02-08T08:28:00;101649.16;;;-0.28;56.72
8320;BME280;4197;42.130;24.746;2023-02-08T08:30:28;101640.25;;;-0.22;55.91
8320;BME280;4197;42.130;24.746;2023-02-08T08:32:57;101642.94;;;-0.22;55.55
8320;BME280;4197;42.130;24.746;2023-02-08T08:35:25;101650.56;;;-0.26;56.13
8320;BME280;4197;42.130;24.746;2023-02-08T08:37:53;101649.88;;;-0.21;55.58
8320;BME280;4197;42.130;24.746;2023-02-08T08:40:21;101650.47;;;-0.19;55.32
8320;BME280;4197;42.130;24.746;2023-02-08T08:42:52;101641.75;;;-0.14;55.65
8320;BME280;4197;42.130;24.746;2023-02-08T08:45:20;101646.22;;;-0.08;54.89
8320;BME280;4197;42.130;24.746;2023-02-08T08:47:48;101653.94;;;-0.18;56.10
8320;BME280;4197;42.130;24.746;2023-02-08T08:50:17;101647.47;;;-0.11;56.02
8320;BME280;4197;42.130;24.746;2023-02-08T08:52:45;101648.41;;;-0.05;55.52
8320;BME280;4197;42.130;24.746;2023-02-08T08:55:14;101655.97;;;0.10;55.72
8320;BME280;4197;42.130;24.746;2023-02-08T08:57:42;101652.72;;;0.08;55.78
8320;BME280;4197;42.130;24.746;2023-02-08T09:00:13;101647.97;;;0.21;54.90
8320;BME280;4197;42.130;24.746;2023-02-08T09:02:41;101650.31;;;0.18;55.62
8320;BME280;4197;42.130;24.746;2023-02-08T09:05:09;101646.13;;;0.22;55.68
8320;BME280;4197;42.130;24.746;2023-02-08T09:07:38;101654.63;;;0.42;54.63
8320;BME280;4197;42.130;24.746;2023-02-08T09:10:06;101658.44;;;0.47;53.40
8320;BME280;4197;42.130;24.746;2023-02-08T09:12:34;101656.00;;;0.45;52.27
8320;BME280;4197;42.130;24.746;2023-02-08T09:15:03;101654.16;;;0.46;52.93
8320;BME280;4197;42.130;24.746;2023-02-08T09:17:33;101662.03;;;0.52;52.22
8320;BME280;4197;42.130;24.746;2023-02-08T09:20:02;101670.97;;;0.58;52.74
8320;BME280;4197;42.130;24.746;2023-02-08T09:22:30;101660.75;;;0.55;52.67
8320;BME280;4197;42.130;24.746;2023-02-08T09:24:59;101669.47;;;0.62;51.33
8320;BME280;4197;42.130;24.746;2023-02-08T09:27:27;101671.34;;;0.61;51.27
8320;BME280;4197;42.130;24.746;2023-02-08T09:29:59;101668.06;;;0.59;51.25
8320;BME280;4197;42.130;24.746;2023-02-08T09:32:30;101674.69;;;0.69;51.65
8320;BME280;4197;42.130;24.746;2023-02-08T09:35:01;101673.41;;;0.71;51.50
8320;BME280;4197;42.130;24.746;2023-02-08T09:37:29;101661.41;;;0.85;54.75
8320;BME280;4197;42.130;24.746;2023-02-08T09:39:58;101658.56;;;0.75;49.60
8320;BME280;4197;42.130;24.746;2023-02-08T09:42:32;101658.31;;;0.77;50.31
8320;BME280;4197;42.130;24.746;2023-02-08T09:45:23;101655.28;;;0.85;50.12
8320;BME280;4197;42.130;24.746;2023-02-08T09:47:58;101657.00;;;0.91;50.59
8320;BME280;4197;42.130;24.746;2023-02-08T09:50:32;101656.16;;;1.14;50.58
8320;BME280;4197;42.130;24.746;2023-02-08T09:53:05;101646.84;;;1.17;51.73
8320;BME280;4197;42.130;24.746;2023-02-08T09:55:39;101652.63;;;1.25;49.78
8320;BME280;4197;42.130;24.746;2023-02-08T09:58:16;101651.44;;;1.33;53.06
8320;BME280;4197;42.130;24.746;2023-02-08T10:00:50;101649.06;;;1.48;50.62
8320;BME280;4197;42.130;24.746;2023-02-08T10:03:40;101645.03;;;1.63;50.61
8320;BME280;4197;42.130;24.746;2023-02-08T10:06:14;101650.72;;;1.66;47.08
8320;BME280;4197;42.130;24.746;2023-02-08T10:08:43;101634.81;;;1.60;47.88
8320;BME280;4197;42.130;24.746;2023-02-08T10:11:35;101641.63;;;1.50;47.91
8320;BME280;4197;42.130;24.746;2023-02-08T10:14:30;101633.81;;;1.49;47.44
8320;BME280;4197;42.130;24.746;2023-02-08T10:17:13;101639.28;;;1.54;46.60
8320;BME280;4197;42.130;24.746;2023-02-08T10:19:59;101633.34;;;1.52;46.44
8320;BME280;4197;42.130;24.746;2023-02-08T10:22:42;101629.44;;;1.43;46.64
8320;BME280;4197;42.130;24.746;2023-02-08T10:25:31;101638.03;;;1.45;47.28
8320;BME280;4197;42.130;24.746;2023-02-08T10:28:25;101628.06;;;1.40;47.50
8320;BME280;4197;42.130;24.746;2023-02-08T10:31:01;101619.84;;;1.59;49.50
8320;BME280;4197;42.130;24.746;2023-02-08T10:33:41;101620.56;;;1.71;47.83
8320;BME280;4197;42.130;24.746;2023-02-08T10:36:19;101624.00;;;1.83;47.64
8320;BME280;4197;42.130;24.746;2023-02-08T10:38:54;101614.53;;;1.92;49.65
8320;BME280;4197;42.130;24.746;2023-02-08T10:41:30;101615.72;;;2.18;47.63
8320;BME280;4197;42.130;24.746;2023-02-08T10:44:15;101620.03;;;2.19;46.36
8320;BME280;4197;42.130;24.746;2023-02-08T10:46:59;101621.25;;;2.29;47.96
8320;BME280;4197;42.130;24.746;2023-02-08T10:49:46;101618.47;;;2.23;44.71
8320;BME280;4197;42.130;24.746;2023-02-08T10:52:18;101615.91;;;2.12;43.72
8320;BME280;4197;42.130;24.746;2023-02-08T10:54:51;101614.25;;;1.94;43.55
8320;BME280;4197;42.130;24.746;2023-02-08T10:57:23;101607.06;;;1.94;43.39
8320;BME280;4197;42.130;24.746;2023-02-08T10:59:56;101615.72;;;2.18;44.15
8320;BME280;4197;42.130;24.746;2023-02-08T11:02:32;101622.06;;;2.12;43.18
8320;BME280;4197;42.130;24.746;2023-02-08T11:05:16;101618.22;;;1.74;43.59
8320;BME280;4197;42.130;24.746;2023-02-08T11:07:44;101614.50;;;1.75;43.65
8320;BME280;4197;42.130;24.746;2023-02-08T11:10:23;101610.03;;;1.64;47.47
8320;BME280;4197;42.130;24.746;2023-02-08T11:12:57;101602.75;;;1.93;46.68
8320;BME280;4197;42.130;24.746;2023-02-08T11:15:36;101608.44;;;1.97;47.35
8320;BME280;4197;42.130;24.746;2023-02-08T11:18:18;101601.94;;;2.27;44.93
8320;BME280;4197;42.130;24.746;2023-02-08T11:20:55;101599.25;;;2.27;43.61
8320;BME280;4197;42.130;24.746;2023-02-08T11:23:26;101607.63;;;2.30;44.29
8320;BME280;4197;42.130;24.746;2023-02-08T11:26:14;101602.16;;;2.42;43.16
8320;BME280;4197;42.130;24.746;2023-02-08T11:28:43;101593.63;;;2.45;45.41
8320;BME280;4197;42.130;24.746;2023-02-08T11:31:17;101601.59;;;2.40;42.65
8320;BME280;4197;42.130;24.746;2023-02-08T11:33:59;101599.06;;;2.50;42.75
8320;BME280;4197;42.130;24.746;2023-02-08T11:36:32;101591.88;;;2.34;42.24
8320;BME280;4197;42.130;24.746;2023-02-08T11:39:21;101588.75;;;2.03;43.07
8320;BME280;4197;42.130;24.746;2023-02-08T11:41:55;101586.69;;;2.10;42.50
8320;BME280;4197;42.130;24.746;2023-02-08T11:44:26;101590.25;;;2.16;45.68
8320;BME280;4197;42.130;24.746;2023-02-08T11:47:00;101582.19;;;2.50;44.17
8320;BME280;4197;42.130;24.746;2023-02-08T11:49:35;101586.31;;;2.79;44.74
8320;BME280;4197;42.130;24.746;2023-02-08T11:52:05;101591.91;;;3.22;44.01
8320;BME280;4197;42.130;24.746;2023-02-08T11:54:37;101580.22;;;3.33;41.95
8320;BME280;4197;42.130;24.746;2023-02-08T11:57:14;101585.63;;;3.38;41.76
8320;BME280;4197;42.130;24.746;2023-02-08T11:59:43;101582.56;;;3.29;42.16
8320;BME280;4197;42.130;24.746;2023-02-08T12:02:31;101586.38;;;3.33;41.45
8320;BME280;4197;42.130;24.746;2023-02-08T12:05:02;101591.25;;;3.37;39.86
8320;BME280;4197;42.130;24.746;2023-02-08T12:07:39;101584.72;;;3.27;39.82
8320;BME280;4197;42.130;24.746;2023-02-08T12:10:48;101597.94;;;3.12;40.46
8320;BME280;4197;42.130;24.746;2023-02-08T12:13:43;101589.34;;;3.10;39.68
8320;BME280;4197;42.130;24.746;2023-02-08T12:16:39;101590.22;;;2.94;39.77
8320;BME280;4197;42.130;24.746;2023-02-08T12:19:30;101600.41;;;2.92;39.93
8320;BME280;4197;42.130;24.746;2023-02-08T12:22:06;101589.41;;;2.93;40.33
8320;BME280;4197;42.130;24.746;2023-02-08T12:24:47;101599.34;;;2.93;40.48
8320;BME280;4197;42.130;24.746;2023-02-08T12:27:36;101594.28;;;2.96;40.69
8320;BME280;4197;42.130;24.746;2023-02-08T12:30:18;101596.03;;;2.63;40.72
8320;BME280;4197;42.130;24.746;2023-02-08T12:33:08;101592.25;;;2.42;40.50
8320;BME280;4197;42.130;24.746;2023-02-08T12:36:08;101590.81;;;2.18;40.66
8320;BME280;4197;42.130;24.746;2023-02-08T12:42:15;101594.28;;;2.35;41.89
8320;BME280;4197;42.130;24.746;2023-02-08T12:45:00;101590.03;;;2.56;41.11
8320;BME280;4197;42.130;24.746;2023-02-08T12:47:48;101586.78;;;2.54;41.79
8320;BME280;4197;42.130;24.746;2023-02-08T12:50:37;101581.31;;;2.27;41.47
8320;BME280;4197;42.130;24.746;2023-02-08T12:53:15;101583.41;;;2.42;41.19
8320;BME280;4197;42.130;24.746;2023-02-08T12:55:46;101580.66;;;2.37;42.09
8320;BME280;4197;42.130;24.746;2023-02-08T12:58:25;101585.59;;;2.45;40.59
8320;BME280;4197;42.130;24.746;2023-02-08T13:00:57;101577.53;;;2.23;40.93
8320;BME280;4197;42.130;24.746;2023-02-08T13:03:35;101576.25;;;2.09;41.16
8320;BME280;4197;42.130;24.746;2023-02-08T13:06:11;101578.81;;;2.20;41.45
8320;BME280;4197;42.130;24.746;2023-02-08T13:08:45;101578.78;;;2.37;41.44
8320;BME280;4197;42.130;24.746;2023-02-08T13:11:21;101585.78;;;2.60;40.76
8320;BME280;4197;42.130;24.746;2023-02-08T13:13:56;101589.84;;;2.63;40.17
8320;BME280;4197;42.130;24.746;2023-02-08T13:16:31;101586.13;;;2.64;40.08
8320;BME280;4197;42.130;24.746;2023-02-08T13:19:20;101586.94;;;2.64;40.28
8320;BME280;4197;42.130;24.746;2023-02-08T13:21:52;101594.03;;;2.76;40.12
8320;BME280;4197;42.130;24.746;2023-02-08T13:24:26;101588.97;;;2.79;39.88
8320;BME280;4197;42.130;24.746;2023-02-08T13:26:56;101587.69;;;2.82;39.81
8320;BME280;4197;42.130;24.746;2023-02-08T13:29:24;101584.44;;;2.80;40.32
8320;BME280;4197;42.130;24.746;2023-02-08T13:31:58;101585.81;;;2.82;40.28
8320;BME280;4197;42.130;24.746;2023-02-08T13:34:33;101592.16;;;2.98;39.95
8320;BME280;4197;42.130;24.746;2023-02-08T13:37:05;101594.78;;;2.93;40.22
8320;BME280;4197;42.130;24.746;2023-02-08T13:40:00;101592.00;;;2.83;40.88